createdAt,value
2022-10-30T00:02:14.001Z,16.92
2022-10-30T00:04:40.606Z,16.84
2022-10-30T00:07:07.123Z,16.79
2022-10-30T00:09:33.797Z,16.85
2022-10-30T00:12:00.688Z,16.79
2022-10-30T00:14:27.249Z,16.64
2022-10-30T00:16:53.894Z,16.42
2022-10-30T00:19:20.463Z,16.16
2022-10-30T00:21:47.148Z,15.95
2022-10-30T00:24:13.674Z,15.74
2022-10-30T00:26:40.215Z,15.61
2022-10-30T00:29:06.865Z,15.52
2022-10-30T00:31:33.447Z,15.48
2022-10-30T00:34:00.074Z,15.39
2022-10-30T00:36:26.799Z,15.40
2022-10-30T00:38:53.529Z,15.43
2022-10-30T00:41:21.628Z,15.50
2022-10-30T00:43:48.320Z,15.52
2022-10-30T00:46:19.479Z,15.53
2022-10-30T00:48:48.968Z,15.56
2022-10-30T00:51:15.477Z,15.59
2022-10-30T00:53:42.154Z,15.65
2022-10-30T00:56:08.739Z,15.66
2022-10-30T00:58:49.122Z,15.59
2022-10-30T01:01:19.335Z,15.48
2022-10-30T01:03:46.116Z,15.40
2022-10-30T01:06:12.664Z,15.32
2022-10-30T01:08:39.381Z,15.21
2022-10-30T01:11:06.137Z,15.05
2022-10-30T01:13:33.072Z,14.90
2022-10-30T01:16:22.921Z,14.69
2022-10-30T01:19:09.733Z,14.51
2022-10-30T01:21:45.572Z,14.30
2022-10-30T01:24:19.902Z,14.10
2022-10-30T01:26:55.752Z,14.06
2022-10-30T01:29:26.229Z,14.13
2022-10-30T01:31:59.160Z,14.22
2022-10-30T01:34:44.530Z,14.20
2022-10-30T01:37:14.624Z,14.23
2022-10-30T01:39:41.573Z,14.29
2022-10-30T01:42:31.168Z,14.41
2022-10-30T01:44:57.790Z,14.23
2022-10-30T01:47:46.826Z,14.03
2022-10-30T01:50:32.193Z,13.96
2022-10-30T01:53:09.015Z,13.88
2022-10-30T01:55:43.079Z,13.87
2022-10-30T01:58:28.906Z,13.78
2022-10-30T02:00:57.097Z,13.81
2022-10-30T02:03:23.938Z,13.81
2022-10-30T02:05:51.227Z,13.76
2022-10-30T02:08:17.854Z,13.68
2022-10-30T02:10:45.309Z,13.54
2022-10-30T02:13:11.880Z,13.38
2022-10-30T02:15:38.470Z,13.25
2022-10-30T02:18:05.221Z,13.12
2022-10-30T02:20:31.792Z,13.14
2022-10-30T02:22:59.529Z,13.02
2022-10-30T02:25:26.426Z,12.75
2022-10-30T02:27:53.044Z,12.57
2022-10-30T02:30:19.669Z,12.43
2022-10-30T02:32:46.210Z,12.35
2022-10-30T02:35:12.720Z,12.32
2022-10-30T02:37:39.993Z,12.35
2022-10-30T02:40:08.343Z,12.32
2022-10-30T02:42:35.272Z,12.27
2022-10-30T02:45:01.756Z,12.25
2022-10-30T02:47:31.400Z,12.27
2022-10-30T02:49:57.890Z,12.28
2022-10-30T02:52:24.345Z,12.24
2022-10-30T02:54:50.803Z,12.19
2022-10-30T02:57:17.373Z,12.20
2022-10-30T02:59:43.829Z,12.21
2022-10-30T03:02:10.381Z,12.16
2022-10-30T03:04:37.350Z,12.13
2022-10-30T03:07:03.923Z,12.13
2022-10-30T03:09:30.470Z,12.12
2022-10-30T03:11:56.973Z,12.22
2022-10-30T03:14:23.558Z,12.29
2022-10-30T03:16:52.596Z,12.32
2022-10-30T03:19:20.358Z,12.35
2022-10-30T03:21:47.145Z,12.34
2022-10-30T03:24:13.789Z,12.36
2022-10-30T03:26:40.340Z,12.32
2022-10-30T03:29:07.004Z,12.25
2022-10-30T03:31:33.687Z,12.25
2022-10-30T03:34:00.226Z,12.22
2022-10-30T03:36:27.772Z,12.13
2022-10-30T03:38:54.324Z,12.06
2022-10-30T03:41:20.858Z,11.95
2022-10-30T03:43:47.377Z,11.90
2022-10-30T03:46:13.857Z,11.83
2022-10-30T03:48:40.444Z,11.83
2022-10-30T03:51:06.994Z,11.89
2022-10-30T03:53:33.599Z,11.93
2022-10-30T03:56:04.604Z,11.98
2022-10-30T03:58:31.113Z,12.02
2022-10-30T04:01:01.828Z,11.92
2022-10-30T04:03:28.371Z,11.77
2022-10-30T04:05:54.912Z,11.70
2022-10-30T04:08:21.417Z,11.66
2022-10-30T04:10:48.052Z,11.54
2022-10-30T04:13:16.451Z,11.31
2022-10-30T04:15:43.085Z,11.12
2022-10-30T04:18:11.174Z,11.00
2022-10-30T04:20:37.740Z,10.91
2022-10-30T04:23:05.361Z,10.90
2022-10-30T04:25:32.129Z,10.91
2022-10-30T04:27:58.963Z,10.90
2022-10-30T04:30:27.206Z,10.84
2022-10-30T04:32:56.746Z,10.80
2022-10-30T04:35:25.594Z,10.81
2022-10-30T04:38:01.462Z,10.85
2022-10-30T04:40:30.930Z,10.79
2022-10-30T04:42:57.923Z,10.72
2022-10-30T04:45:24.768Z,10.66
2022-10-30T04:47:51.338Z,10.60
2022-10-30T04:50:18.018Z,10.60
2022-10-30T04:52:44.724Z,10.61
2022-10-30T04:55:11.440Z,10.45
2022-10-30T04:57:38.125Z,10.42
2022-10-30T05:00:05.594Z,10.41
2022-10-30T05:02:32.246Z,10.41
2022-10-30T05:04:58.786Z,10.36
2022-10-30T05:07:25.333Z,10.31
2022-10-30T05:09:51.794Z,10.27
2022-10-30T05:12:19.587Z,10.27
2022-10-30T05:14:46.057Z,10.23
2022-10-30T05:17:12.604Z,10.15
2022-10-30T05:19:39.122Z,10.11
2022-10-30T05:22:05.674Z,10.03
2022-10-30T05:24:32.216Z,9.92
2022-10-30T05:26:58.699Z,9.89
2022-10-30T05:29:25.164Z,9.87
2022-10-30T05:31:51.678Z,9.87
2022-10-30T05:34:18.113Z,9.81
2022-10-30T05:36:44.631Z,9.76
2022-10-30T05:39:11.111Z,9.72
2022-10-30T05:41:37.771Z,9.73
2022-10-30T05:44:04.326Z,9.71
2022-10-30T05:46:30.805Z,9.67
2022-10-30T05:48:57.393Z,9.60
2022-10-30T05:51:23.872Z,9.55
2022-10-30T05:53:50.377Z,9.51
2022-10-30T05:56:16.934Z,9.55
2022-10-30T05:58:43.553Z,9.61
2022-10-30T06:01:10.034Z,9.73
2022-10-30T06:03:36.514Z,9.80
2022-10-30T06:06:03.117Z,9.74
2022-10-30T06:08:29.641Z,9.74
2022-10-30T06:10:56.145Z,9.60
2022-10-30T06:13:22.856Z,9.44
2022-10-30T06:15:49.326Z,9.37
2022-10-30T06:18:15.801Z,9.36
2022-10-30T06:20:42.270Z,9.40
2022-10-30T06:23:10.418Z,9.47
2022-10-30T06:25:41.110Z,9.46
2022-10-30T06:28:08.966Z,9.45
2022-10-30T06:30:35.467Z,9.45
2022-10-30T06:33:02.816Z,9.49
2022-10-30T06:35:29.515Z,9.46
2022-10-30T06:37:56.508Z,9.35
2022-10-30T06:40:23.452Z,9.39
2022-10-30T06:42:51.216Z,9.44
2022-10-30T06:45:19.278Z,9.40
2022-10-30T06:47:45.809Z,9.40
2022-10-30T06:50:13.394Z,9.54
2022-10-30T06:52:39.900Z,9.49
2022-10-30T06:55:06.567Z,9.45
2022-10-30T06:57:33.046Z,9.47
2022-10-30T06:59:59.477Z,9.48
2022-10-30T07:02:26.052Z,9.50
2022-10-30T07:04:52.555Z,9.48
2022-10-30T07:07:19.082Z,9.43
2022-10-30T07:09:46.619Z,9.41
2022-10-30T07:12:13.211Z,9.46
2022-10-30T07:14:39.720Z,9.56
2022-10-30T07:17:06.217Z,9.60
2022-10-30T07:19:32.753Z,9.84
2022-10-30T07:22:00.607Z,10.19
2022-10-30T07:24:27.371Z,10.39
2022-10-30T07:26:54.653Z,10.63
2022-10-30T07:29:21.157Z,10.79
2022-10-30T07:32:02.321Z,11.00
2022-10-30T07:34:29.841Z,11.31
2022-10-30T07:36:56.330Z,11.62
2022-10-30T07:39:22.840Z,11.82
2022-10-30T07:41:50.604Z,11.94
2022-10-30T07:44:17.353Z,12.02
2022-10-30T07:46:43.866Z,12.15
2022-10-30T07:49:10.364Z,12.25
2022-10-30T07:51:36.850Z,12.42
2022-10-30T07:54:03.426Z,12.54
2022-10-30T07:56:29.889Z,12.73
2022-10-30T07:58:56.441Z,12.83
2022-10-30T08:01:23.212Z,13.01
2022-10-30T08:03:49.840Z,13.15
2022-10-30T08:06:16.817Z,13.33
2022-10-30T08:08:43.884Z,13.43
2022-10-30T08:11:10.388Z,13.55
2022-10-30T08:13:36.918Z,13.67
2022-10-30T08:16:03.390Z,13.79
2022-10-30T08:18:29.946Z,13.93
2022-10-30T08:20:56.488Z,14.07
2022-10-30T08:23:23.176Z,14.20
2022-10-30T08:25:49.658Z,14.41
2022-10-30T08:28:16.210Z,14.66
2022-10-30T08:30:42.759Z,15.15
2022-10-30T08:33:15.790Z,15.71
2022-10-30T08:35:49.082Z,16.23
2022-10-30T08:38:15.636Z,16.82
2022-10-30T08:40:42.175Z,17.35
2022-10-30T08:43:08.873Z,18.03
2022-10-30T08:45:35.618Z,18.40
2022-10-30T08:48:03.708Z,18.56
2022-10-30T08:50:30.929Z,19.39
2022-10-30T08:53:00.796Z,19.94
2022-10-30T08:55:27.658Z,20.51
2022-10-30T08:57:54.297Z,21.45
2022-10-30T09:00:21.096Z,22.02
2022-10-30T09:02:47.818Z,22.90
2022-10-30T09:05:14.682Z,23.69
2022-10-30T09:07:41.447Z,24.00
2022-10-30T09:10:08.317Z,24.23
2022-10-30T09:12:35.019Z,24.36
2022-10-30T09:15:02.132Z,24.76
2022-10-30T09:17:28.824Z,25.53
2022-10-30T09:19:55.639Z,26.17
2022-10-30T09:22:22.313Z,26.45
2022-10-30T09:24:49.154Z,25.95
2022-10-30T09:27:15.869Z,25.06
2022-10-30T09:29:42.655Z,25.24
2022-10-30T09:32:10.751Z,25.06
2022-10-30T09:34:38.541Z,25.36
2022-10-30T09:37:05.301Z,24.38
2022-10-30T09:39:31.908Z,24.50
2022-10-30T09:41:58.515Z,24.39
2022-10-30T09:44:40.690Z,24.52
2022-10-30T09:47:08.809Z,25.19
2022-10-30T09:49:35.545Z,25.69
2022-10-30T09:52:06.442Z,25.40
2022-10-30T09:54:40.334Z,25.91
2022-10-30T09:57:10.955Z,26.38
2022-10-30T09:59:37.678Z,26.83
2022-10-30T10:02:34.130Z,26.69
2022-10-30T10:05:17.880Z,25.98
2022-10-30T10:07:48.439Z,25.78
2022-10-30T10:10:20.358Z,25.94
2022-10-30T10:12:48.251Z,26.03
2022-10-30T10:15:17.697Z,26.07
2022-10-30T10:17:45.034Z,26.69
2022-10-30T10:20:21.187Z,27.13
2022-10-30T10:22:51.282Z,27.62
2022-10-30T10:25:19.454Z,27.03
2022-10-30T10:27:49.916Z,28.13
2022-10-30T10:30:22.924Z,28.39
2022-10-30T10:32:50.296Z,27.88
2022-10-30T10:35:20.002Z,28.02
2022-10-30T10:37:50.187Z,28.94
2022-10-30T10:40:23.195Z,28.87
2022-10-30T10:42:52.953Z,29.53
2022-10-30T10:45:22.686Z,29.94
2022-10-30T10:48:04.752Z,29.19
2022-10-30T10:50:39.673Z,28.84
2022-10-30T10:53:21.989Z,29.25
2022-10-30T10:56:18.955Z,29.08
2022-10-30T10:59:04.188Z,28.90
2022-10-30T11:01:41.407Z,29.38
2022-10-30T11:04:25.217Z,29.61
2022-10-30T11:06:53.489Z,30.13
2022-10-30T11:09:24.211Z,30.86
2022-10-30T11:14:22.913Z,32.13
2022-10-30T11:17:06.146Z,32.23
2022-10-30T11:19:32.867Z,32.61
2022-10-30T11:21:59.518Z,32.75
2022-10-30T11:24:27.393Z,32.46
2022-10-30T11:26:54.613Z,32.48
2022-10-30T11:29:25.386Z,33.42
2022-10-30T11:32:05.330Z,34.08
2022-10-30T11:34:33.187Z,34.45
2022-10-30T11:36:59.820Z,33.68
2022-10-30T11:39:27.682Z,33.30
2022-10-30T11:41:57.296Z,34.14
2022-10-30T11:44:28.860Z,35.03
2022-10-30T11:46:55.557Z,35.38
2022-10-30T11:49:31.129Z,34.58
2022-10-30T11:51:57.790Z,34.66
2022-10-30T11:54:24.435Z,35.33
2022-10-30T11:56:51.022Z,35.92
2022-10-30T11:59:22.290Z,36.52
2022-10-30T12:01:59.368Z,35.31
2022-10-30T12:04:27.644Z,34.89
2022-10-30T12:07:33.026Z,34.64
2022-10-30T12:10:01.043Z,31.83
2022-10-30T12:12:27.694Z,32.14
2022-10-30T12:14:54.387Z,31.78
2022-10-30T12:17:21.112Z,30.43
2022-10-30T12:19:49.063Z,30.24
2022-10-30T12:22:25.756Z,30.28
2022-10-30T12:24:52.378Z,29.33
2022-10-30T12:27:22.378Z,29.59
2022-10-30T12:30:11.880Z,30.24
2022-10-30T12:32:39.873Z,30.85
2022-10-30T12:35:10.218Z,30.28
2022-10-30T12:37:40.722Z,28.76
2022-10-30T12:40:17.903Z,29.14
2022-10-30T12:42:49.134Z,29.07
2022-10-30T12:45:24.499Z,28.38
2022-10-30T12:47:52.920Z,27.60
2022-10-30T12:50:20.163Z,26.86
2022-10-30T12:52:52.125Z,26.17
2022-10-30T12:55:27.631Z,25.98
2022-10-30T12:58:01.930Z,25.29
2022-10-30T13:00:28.957Z,24.98
2022-10-30T13:02:57.634Z,25.16
2022-10-30T13:05:24.502Z,25.51
2022-10-30T13:07:52.447Z,24.85
2022-10-30T13:10:23.291Z,24.35
2022-10-30T13:12:52.473Z,24.04
2022-10-30T13:15:26.986Z,23.82
2022-10-30T13:17:53.808Z,23.54
2022-10-30T13:20:20.736Z,23.50
2022-10-30T13:23:10.945Z,23.47
2022-10-30T13:25:42.229Z,23.25
2022-10-30T13:28:28.407Z,23.24
2022-10-30T13:30:58.242Z,23.28
2022-10-30T13:33:27.924Z,23.12
2022-10-30T13:36:13.584Z,22.93
2022-10-30T13:38:59.198Z,22.71
2022-10-30T13:41:31.915Z,22.72
2022-10-30T13:44:02.561Z,22.82
2022-10-30T13:46:32.741Z,22.91
2022-10-30T13:49:02.254Z,22.89
2022-10-30T13:51:47.864Z,22.82
2022-10-30T13:54:19.226Z,22.63
2022-10-30T13:56:46.156Z,22.50
2022-10-30T13:59:17.153Z,22.37
2022-10-30T14:01:47.781Z,22.15
2022-10-30T14:04:19.660Z,22.11
2022-10-30T14:07:05.219Z,21.99
2022-10-30T14:09:43.579Z,21.88
2022-10-30T14:12:29.049Z,21.85
2022-10-30T14:14:55.786Z,21.77
2022-10-30T14:17:22.539Z,21.64
2022-10-30T14:20:13.701Z,21.60
2022-10-30T14:22:41.050Z,21.51
2022-10-30T14:25:14.283Z,21.28
2022-10-30T14:27:40.924Z,21.32
2022-10-30T14:30:16.967Z,21.34
2022-10-30T14:32:48.400Z,21.34
2022-10-30T14:35:28.337Z,21.34
2022-10-30T14:37:55.705Z,21.26
2022-10-30T14:40:42.140Z,21.23
2022-10-30T14:43:20.864Z,21.19
2022-10-30T14:45:49.635Z,21.12
2022-10-30T14:48:19.027Z,21.05
2022-10-30T14:50:55.136Z,20.91
2022-10-30T14:53:40.529Z,20.64
2022-10-30T14:58:44.129Z,20.45
2022-10-30T15:01:20.104Z,20.31
2022-10-30T15:03:53.002Z,20.13
2022-10-30T15:06:25.748Z,19.98
2022-10-30T15:08:55.406Z,19.82
2022-10-30T15:11:22.045Z,19.75
2022-10-30T15:13:49.479Z,19.64
2022-10-30T15:16:16.765Z,19.54
2022-10-30T15:18:47.220Z,19.35
2022-10-30T15:21:18.724Z,19.20
2022-10-30T15:23:45.465Z,19.12
2022-10-30T15:26:19.073Z,18.96
2022-10-30T15:28:45.837Z,18.82
2022-10-30T15:31:18.682Z,18.72
2022-10-30T15:33:45.271Z,18.60
2022-10-30T15:36:16.992Z,18.50
2022-10-30T15:38:43.605Z,18.55
2022-10-30T15:41:10.299Z,18.41
2022-10-30T15:43:37.919Z,18.20
2022-10-30T15:46:08.602Z,18.07
2022-10-30T15:48:35.173Z,17.99
2022-10-30T15:51:02.672Z,17.96
2022-10-30T15:53:49.550Z,17.93
2022-10-30T15:56:20.058Z,17.82
2022-10-30T15:58:54.586Z,17.69
2022-10-30T16:01:25.390Z,17.75
2022-10-30T16:03:53.562Z,17.60
2022-10-30T16:06:20.210Z,17.45
2022-10-30T16:08:47.369Z,17.37
2022-10-30T16:11:14.291Z,17.22
2022-10-30T16:13:41.089Z,17.02
2022-10-30T16:16:08.068Z,16.89
2022-10-30T16:18:36.066Z,16.91
2022-10-30T16:21:04.444Z,16.82
2022-10-30T16:23:31.003Z,16.67
2022-10-30T16:25:58.362Z,16.59
2022-10-30T16:28:26.023Z,16.68
2022-10-30T16:30:52.686Z,16.91
2022-10-30T16:33:21.295Z,16.82
2022-10-30T16:35:54.607Z,16.52
2022-10-30T16:38:22.848Z,16.37
2022-10-30T16:40:49.482Z,16.34
2022-10-30T16:43:24.315Z,16.40
2022-10-30T16:45:50.942Z,16.31
2022-10-30T16:48:20.267Z,16.33
2022-10-30T16:50:46.808Z,16.27
2022-10-30T16:53:21.020Z,16.15
2022-10-30T16:55:47.503Z,15.99
2022-10-30T16:58:14.237Z,15.86
2022-10-30T17:00:40.917Z,15.76
2022-10-30T17:03:11.294Z,15.69
2022-10-30T17:05:37.958Z,15.63
2022-10-30T17:08:05.817Z,15.59
2022-10-30T17:10:36.810Z,15.55
2022-10-30T17:13:22.212Z,15.49
2022-10-30T17:15:48.797Z,15.52
2022-10-30T17:18:16.450Z,15.54
2022-10-30T17:20:42.987Z,15.54
2022-10-30T17:23:19.163Z,15.62
2022-10-30T17:25:45.704Z,15.68
2022-10-30T17:28:25.347Z,15.67
2022-10-30T17:30:51.926Z,15.81
2022-10-30T17:33:32.801Z,15.75
2022-10-30T17:35:59.502Z,15.67
2022-10-30T17:38:26.188Z,15.64
2022-10-30T17:40:52.768Z,15.45
2022-10-30T17:43:19.402Z,15.34
2022-10-30T17:45:46.098Z,15.31
2022-10-30T17:48:13.440Z,15.27
2022-10-30T17:50:40.297Z,15.32
2022-10-30T17:53:06.881Z,15.35
2022-10-30T17:55:33.973Z,15.36
2022-10-30T17:58:00.564Z,15.40
2022-10-30T18:00:27.058Z,15.47
2022-10-30T18:02:53.740Z,15.37
2022-10-30T18:05:21.252Z,15.38
2022-10-30T18:07:47.791Z,15.32
2022-10-30T18:10:14.418Z,15.32
2022-10-30T18:12:41.557Z,15.24
2022-10-30T18:15:26.834Z,15.27
2022-10-30T18:17:53.555Z,15.27
2022-10-30T18:20:20.243Z,15.27
2022-10-30T18:22:46.825Z,15.25
2022-10-30T18:25:18.502Z,15.27
2022-10-30T18:27:45.256Z,15.30
2022-10-30T18:30:13.242Z,15.30
2022-10-30T18:32:39.813Z,15.30
2022-10-30T18:35:11.723Z,15.44
2022-10-30T18:37:38.195Z,15.51
2022-10-30T18:40:04.882Z,15.56
2022-10-30T18:42:31.333Z,15.45
2022-10-30T18:44:58.050Z,15.50
2022-10-30T18:47:24.516Z,15.49
2022-10-30T18:49:50.974Z,15.47
2022-10-30T18:52:17.489Z,15.39
2022-10-30T18:54:43.993Z,15.29
2022-10-30T18:57:10.503Z,15.31
2022-10-30T18:59:37.074Z,15.24
2022-10-30T19:02:03.829Z,15.13
2022-10-30T19:04:30.442Z,15.10
2022-10-30T19:06:56.968Z,15.04
2022-10-30T19:09:23.534Z,15.10
2022-10-30T19:11:50.078Z,15.05
2022-10-30T19:14:16.718Z,14.95
2022-10-30T19:16:43.231Z,14.95
2022-10-30T19:19:09.778Z,14.88
2022-10-30T19:21:36.696Z,14.83
2022-10-30T19:24:03.342Z,14.78
2022-10-30T19:26:29.826Z,14.80
2022-10-30T19:28:56.433Z,14.70
2022-10-30T19:31:22.970Z,14.64
2022-10-30T19:33:54.470Z,14.66
2022-10-30T19:36:34.181Z,14.61
2022-10-30T19:39:05.838Z,14.50
2022-10-30T19:41:35.526Z,14.41
2022-10-30T19:44:02.072Z,14.30
2022-10-30T19:46:28.536Z,14.23
2022-10-30T19:48:57.825Z,14.11
2022-10-30T19:51:25.539Z,14.05
2022-10-30T19:53:53.828Z,13.99
2022-10-30T19:56:20.655Z,13.85
2022-10-30T19:58:47.342Z,13.75
2022-10-30T20:01:14.176Z,13.62
2022-10-30T20:03:40.881Z,13.50
2022-10-30T20:06:07.445Z,13.42
2022-10-30T20:08:34.029Z,13.37
2022-10-30T20:11:01.985Z,13.27
2022-10-30T20:13:28.714Z,13.15
2022-10-30T20:15:55.565Z,13.02
2022-10-30T20:18:22.829Z,12.93
2022-10-30T20:20:53.381Z,12.85
2022-10-30T20:23:22.883Z,12.88
2022-10-30T20:25:52.199Z,12.86
2022-10-30T20:28:26.324Z,12.80
2022-10-30T20:30:53.177Z,12.75
2022-10-30T20:33:20.220Z,12.73
2022-10-30T20:35:47.291Z,12.74
2022-10-30T20:38:18.163Z,12.69
2022-10-30T20:40:45.050Z,12.64
2022-10-30T20:43:21.472Z,12.58
2022-10-30T20:45:47.951Z,12.52
2022-10-30T20:48:14.564Z,12.50
2022-10-30T20:50:41.121Z,12.51
2022-10-30T20:53:07.771Z,12.49
2022-10-30T20:55:35.102Z,12.49
2022-10-30T20:58:02.376Z,12.52
2022-10-30T21:00:29.157Z,12.55
2022-10-30T21:02:57.081Z,12.58
2022-10-30T21:05:42.797Z,12.61
2022-10-30T21:08:10.032Z,12.65
2022-10-30T21:10:37.025Z,12.76
2022-10-30T21:13:07.327Z,12.73
2022-10-30T21:15:37.558Z,12.70
2022-10-30T21:18:04.114Z,12.65
2022-10-30T21:20:30.593Z,12.60
2022-10-30T21:22:57.052Z,12.63
2022-10-30T21:25:23.611Z,12.65
2022-10-30T21:27:50.073Z,12.63
2022-10-30T21:30:16.595Z,12.56
2022-10-30T21:32:43.426Z,12.52
2022-10-30T21:35:10.024Z,12.48
2022-10-30T21:37:36.603Z,12.38
2022-10-30T21:40:03.390Z,12.35
2022-10-30T21:42:30.116Z,12.35
2022-10-30T21:44:56.714Z,12.22
2022-10-30T21:47:23.339Z,12.15
2022-10-30T21:49:49.865Z,12.09
2022-10-30T21:52:16.336Z,12.07
2022-10-30T21:54:42.872Z,12.03
2022-10-30T21:59:35.877Z,12.03
2022-10-30T22:02:02.468Z,11.92
2022-10-30T22:04:30.758Z,11.82
2022-10-30T22:06:57.215Z,11.87
2022-10-30T22:09:23.788Z,11.80
2022-10-30T22:11:50.289Z,11.75
2022-10-30T22:14:16.893Z,11.59
2022-10-30T22:16:43.429Z,11.38
2022-10-30T22:19:10.346Z,11.23
2022-10-30T22:21:36.835Z,11.08
2022-10-30T22:24:03.741Z,11.05
2022-10-30T22:26:30.335Z,11.01
2022-10-30T22:28:57.874Z,10.94
2022-10-30T22:31:24.923Z,10.96
2022-10-30T22:33:51.520Z,10.98
2022-10-30T22:36:18.883Z,10.88
2022-10-30T22:38:45.809Z,10.87
2022-10-30T22:41:15.370Z,10.85
2022-10-30T22:43:42.252Z,10.85
2022-10-30T22:46:09.111Z,10.87
2022-10-30T22:48:35.606Z,10.87
2022-10-30T22:51:02.865Z,10.81
2022-10-30T22:53:30.263Z,10.75
2022-10-30T22:55:56.777Z,10.76
2022-10-30T22:58:27.420Z,10.76
2022-10-30T23:00:53.896Z,10.74
2022-10-30T23:03:20.421Z,10.75
2022-10-30T23:05:58.627Z,10.77
2022-10-30T23:08:26.360Z,10.76
2022-10-30T23:10:53.428Z,10.72
2022-10-30T23:15:47.040Z,10.64
2022-10-30T23:18:13.536Z,10.61
2022-10-30T23:20:40.574Z,10.59
2022-10-30T23:23:07.063Z,10.57
2022-10-30T23:25:37.106Z,10.60
2022-10-30T23:28:04.713Z,10.61
2022-10-30T23:30:31.277Z,10.64
2022-10-30T23:32:58.103Z,10.66
2022-10-30T23:35:24.818Z,10.67
2022-10-30T23:37:51.303Z,10.69
2022-10-30T23:40:17.792Z,10.69
2022-10-30T23:42:44.294Z,10.69
2022-10-30T23:45:10.963Z,10.70
2022-10-30T23:47:42.512Z,10.69
2022-10-30T23:50:09.527Z,10.61
2022-10-30T23:52:36.061Z,10.48
2022-10-30T23:55:02.581Z,10.40
2022-10-30T23:57:29.043Z,10.39
2022-10-30T23:59:55.555Z,10.39
